Time;durP1;ratioP1;P1;durP2;ratioP2;P2;SDS_P1;SDS_P2;PMS_P1;PMS_P2;Temp;Humidity;BMP_temperature;BMP_pressure;BME280_temperature;BME280_humidity;BME280_pressure;Samples;Min_cycle;Max_cycle;Signal;HPM_P1;HPM_P2
2024/02/04 00:01:18;;;;;;;;;;;4.60;100.00;;;;;;5007546;28;19929;-66
2024/02/04 00:03:45;;;;;;;;;;;4.60;100.00;;;;;;5006475;28;20302;-66
2024/02/04 00:06:12;;;;;;;;;;;4.50;100.00;;;;;;4997881;28;20422;-66
2024/02/04 00:08:39;;;;;;;;;;;4.40;100.00;;;;;;5007338;28;20375;-66
2024/02/04 00:11:07;;;;;;;;;;;4.40;100.00;;;;;;5006048;28;19929;-66
2024/02/04 00:13:34;;;;;;;;;;;4.50;100.00;;;;;;5021669;28;19968;-66
2024/02/04 00:16:01;;;;;;;;;;;4.50;100.00;;;;;;5005371;28;20541;-66
2024/02/04 00:18:28;;;;;;;;;;;4.60;100.00;;;;;;5005942;28;20306;-66
2024/02/04 00:20:55;;;;;;;;;;;4.60;100.00;;;;;;5014588;28;20661;-66
2024/02/04 00:23:21;;;;;;;;;;;4.60;100.00;;;;;;5006724;28;20224;-66
2024/02/04 00:25:48;;;;;;;;;;;4.60;100.00;;;;;;4989068;28;21253;-66
2024/02/04 00:28:15;;;;;;;;;;;4.70;100.00;;;;;;5005834;28;20639;-66
2024/02/04 00:30:42;;;;;;;;;;;4.70;100.00;;;;;;4997440;28;19929;-66
2024/02/04 00:33:08;;;;;;;;;;;4.70;100.00;;;;;;5015323;28;19952;-66
2024/02/04 00:35:35;;;;;;;;;;;4.70;100.00;;;;;;5015455;28;19991;-66
2024/02/04 00:38:03;;;;;;;;;;;4.60;100.00;;;;;;5009618;28;19997;-66
2024/02/04 00:40:29;;;;;;;;;;;4.60;100.00;;;;;;5006186;28;20107;-66
2024/02/04 00:42:56;;;;;;;;;;;4.60;100.00;;;;;;5012816;28;19933;-66
2024/02/04 00:45:23;;;;;;;;;;;4.70;100.00;;;;;;5001664;28;19957;-66
2024/02/04 00:47:50;;;;;;;;;;;4.70;100.00;;;;;;4992730;28;20327;-66
2024/02/04 00:50:17;;;;;;;;;;;4.70;100.00;;;;;;5010326;28;19933;-66
2024/02/04 00:52:44;;;;;;;;;;;4.70;100.00;;;;;;5006191;28;19964;-66
2024/02/04 00:55:11;;;;;;;;;;;4.70;100.00;;;;;;5008289;28;19930;-66
2024/02/04 00:57:38;;;;;;;;;;;4.80;100.00;;;;;;5006201;28;19940;-66
2024/02/04 01:00:05;;;;;;;;;;;4.90;100.00;;;;;;5006403;28;20437;-66
2024/02/04 01:02:32;;;;;;;;;;;4.90;100.00;;;;;;5005884;28;20040;-66
2024/02/04 01:04:58;;;;;;;;;;;5.00;100.00;;;;;;5006024;28;19934;-66
2024/02/04 01:07:25;;;;;;;;;;;5.00;100.00;;;;;;5018492;28;19967;-66
2024/02/04 01:09:52;;;;;;;;;;;5.00;100.00;;;;;;5010717;28;19976;-67
2024/02/04 01:12:19;;;;;;;;;;;5.00;100.00;;;;;;5010679;28;19929;-66
2024/02/04 01:14:45;;;;;;;;;;;5.00;100.00;;;;;;5010568;28;20063;-67
2024/02/04 01:17:12;;;;;;;;;;;5.00;100.00;;;;;;5009964;28;19932;-67
2024/02/04 01:19:39;;;;;;;;;;;5.00;100.00;;;;;;5009444;28;20025;-67
2024/02/04 01:22:06;;;;;;;;;;;5.00;100.00;;;;;;5016782;28;20459;-67
2024/02/04 01:24:33;;;;;;;;;;;5.10;100.00;;;;;;4992518;28;19929;-68
2024/02/04 01:26:59;;;;;;;;;;;5.10;100.00;;;;;;5009608;28;19929;-67
2024/02/04 01:29:26;;;;;;;;;;;5.20;100.00;;;;;;4991676;28;20297;-68
2024/02/04 01:31:54;;;;;;;;;;;5.30;100.00;;;;;;5009250;28;19929;-67
2024/02/04 01:34:20;;;;;;;;;;;5.30;100.00;;;;;;4990593;28;19937;-68
2024/02/04 01:36:47;;;;;;;;;;;5.40;100.00;;;;;;4994472;28;19933;-67
2024/02/04 01:39:14;;;;;;;;;;;5.40;100.00;;;;;;5009690;28;19934;-68
2024/02/04 01:41:44;;;;;;;;;;;5.30;100.00;;;;;;5009262;28;20526;-67
2024/02/04 01:44:11;;;;;;;;;;;5.20;100.00;;;;;;4991872;28;20541;-68
2024/02/04 01:46:38;;;;;;;;;;;5.10;100.00;;;;;;5009052;28;19977;-67
2024/02/04 01:49:05;;;;;;;;;;;5.10;100.00;;;;;;5007600;28;20049;-67
2024/02/04 01:51:32;;;;;;;;;;;5.10;100.00;;;;;;5013779;28;19929;-67
2024/02/04 01:54:03;;;;;;;;;;;5.10;100.00;;;;;;5016156;28;19932;-67
2024/02/04 01:56:30;;;;;;;;;;;5.00;100.00;;;;;;5009079;28;20020;-67
2024/02/04 01:58:58;;;;;;;;;;;5.00;100.00;;;;;;5008678;28;20577;-67
2024/02/04 02:01:26;;;;;;;;;;;5.00;100.00;;;;;;5009088;28;20031;-67
2024/02/04 02:03:53;;;;;;;;;;;5.00;100.00;;;;;;5008921;28;19965;-68
2024/02/04 02:06:20;;;;;;;;;;;5.00;100.00;;;;;;5013422;28;19937;-67
2024/02/04 02:08:48;;;;;;;;;;;4.90;100.00;;;;;;5016233;28;20943;-67
2024/02/04 02:11:19;;;;;;;;;;;4.90;100.00;;;;;;5008099;28;20007;-68
2024/02/04 02:13:50;;;;;;;;;;;4.80;100.00;;;;;;4990397;28;19936;-67
2024/02/04 02:16:19;;;;;;;;;;;4.80;100.00;;;;;;5017035;28;19976;-67
2024/02/04 02:18:49;;;;;;;;;;;4.80;100.00;;;;;;5008844;28;20668;-67
2024/02/04 02:21:24;;;;;;;;;;;4.70;100.00;;;;;;5008747;28;19930;-67
2024/02/04 02:24:03;;;;;;;;;;;4.80;100.00;;;;;;5013755;28;19930;-67
2024/02/04 02:26:34;;;;;;;;;;;4.80;100.00;;;;;;5007599;28;19930;-67
2024/02/04 02:29:00;;;;;;;;;;;4.80;100.00;;;;;;5009831;28;20440;-67
2024/02/04 02:31:27;;;;;;;;;;;4.80;100.00;;;;;;5017382;28;20054;-67
2024/02/04 02:34:10;;;;;;;;;;;4.90;100.00;;;;;;5008129;28;19933;-67
2024/02/04 02:36:42;;;;;;;;;;;4.90;100.00;;;;;;4990735;28;20012;-67
2024/02/04 02:39:21;;;;;;;;;;;4.80;100.00;;;;;;4990755;28;19930;-67
2024/02/04 02:41:49;;;;;;;;;;;4.90;100.00;;;;;;4991041;28;20367;-67
2024/02/04 02:44:17;;;;;;;;;;;4.90;100.00;;;;;;5007337;28;19956;-68
2024/02/04 02:46:46;;;;;;;;;;;5.00;100.00;;;;;;5008331;28;20466;-67
2024/02/04 02:49:13;;;;;;;;;;;5.00;100.00;;;;;;5018117;28;19972;-67
2024/02/04 02:51:40;;;;;;;;;;;5.10;100.00;;;;;;5016420;28;19961;-67
2024/02/04 02:54:07;;;;;;;;;;;5.10;100.00;;;;;;5008333;28;19929;-67
2024/02/04 02:56:34;;;;;;;;;;;5.10;100.00;;;;;;5008468;28;20449;-67
2024/02/04 02:59:01;;;;;;;;;;;5.20;100.00;;;;;;5008080;28;19937;-67
2024/02/04 03:01:28;;;;;;;;;;;5.10;100.00;;;;;;5004981;28;20016;-67
2024/02/04 03:03:55;;;;;;;;;;;5.20;100.00;;;;;;5008337;28;19937;-67
2024/02/04 03:06:22;;;;;;;;;;;5.20;100.00;;;;;;5008347;28;20475;-67
2024/02/04 03:08:48;;;;;;;;;;;5.20;100.00;;;;;;5007513;28;19929;-67
2024/02/04 03:11:15;;;;;;;;;;;5.20;100.00;;;;;;5008509;28;19965;-67
2024/02/04 03:13:42;;;;;;;;;;;5.20;100.00;;;;;;5007121;28;20385;-67
2024/02/04 03:16:12;;;;;;;;;;;5.20;100.00;;;;;;5012172;28;20036;-67
2024/02/04 03:18:39;;;;;;;;;;;5.30;100.00;;;;;;5006154;28;20771;-67
2024/02/04 03:21:13;;;;;;;;;;;5.30;100.00;;;;;;5012308;28;20016;-67
2024/02/04 03:23:41;;;;;;;;;;;5.40;100.00;;;;;;5009575;28;20393;-67
2024/02/04 03:26:07;;;;;;;;;;;5.40;100.00;;;;;;5007608;28;19968;-67
2024/02/04 03:28:34;;;;;;;;;;;5.40;100.00;;;;;;5006969;28;19937;-67
2024/02/04 03:31:01;;;;;;;;;;;5.50;100.00;;;;;;5007617;28;19929;-67
2024/02/04 03:33:28;;;;;;;;;;;5.50;100.00;;;;;;5008795;28;19933;-67
2024/02/04 03:35:55;;;;;;;;;;;5.50;100.00;;;;;;4992858;28;20004;-67
2024/02/04 03:38:22;;;;;;;;;;;5.50;100.00;;;;;;5008351;28;19929;-67
2024/02/04 03:40:49;;;;;;;;;;;5.50;100.00;;;;;;5006684;28;19997;-67
2024/02/04 03:43:16;;;;;;;;;;;5.50;100.00;;;;;;5006939;28;19936;-67
2024/02/04 03:45:42;;;;;;;;;;;5.50;100.00;;;;;;5006708;28;20668;-67
2024/02/04 03:48:09;;;;;;;;;;;5.50;100.00;;;;;;5007271;28;19929;-67
2024/02/04 03:50:36;;;;;;;;;;;5.50;100.00;;;;;;5005430;28;20323;-67
2024/02/04 03:53:03;;;;;;;;;;;5.50;100.00;;;;;;5016007;28;19929;-67
2024/02/04 03:55:30;;;;;;;;;;;5.60;100.00;;;;;;5017388;28;20090;-67
2024/02/04 03:57:57;;;;;;;;;;;5.60;100.00;;;;;;5013752;28;20734;-67
2024/02/04 04:00:24;;;;;;;;;;;5.60;100.00;;;;;;4987469;28;20605;-67
2024/02/04 04:02:51;;;;;;;;;;;5.60;100.00;;;;;;5001690;28;19935;-67
2024/02/04 04:05:18;;;;;;;;;;;5.60;100.00;;;;;;5006685;28;19937;-67
2024/02/04 04:07:45;;;;;;;;;;;5.70;100.00;;;;;;5004477;28;19964;-67
2024/02/04 04:10:12;;;;;;;;;;;5.70;100.00;;;;;;4988701;28;19940;-67
2024/02/04 04:12:39;;;;;;;;;;;5.70;100.00;;;;;;5006439;28;19937;-67
2024/02/04 04:15:06;;;;;;;;;;;5.70;100.00;;;;;;5006443;28;20029;-67
2024/02/04 04:17:32;;;;;;;;;;;5.70;100.00;;;;;;5006529;28;19968;-67
2024/02/04 04:19:59;;;;;;;;;;;5.70;100.00;;;;;;5006395;28;19930;-67
2024/02/04 04:22:26;;;;;;;;;;;5.70;100.00;;;;;;5005654;28;19929;-67
2024/02/04 04:24:53;;;;;;;;;;;5.70;100.00;;;;;;5006526;28;19929;-67
2024/02/04 04:27:20;;;;;;;;;;;5.70;100.00;;;;;;5006278;28;19929;-67
2024/02/04 04:29:47;;;;;;;;;;;5.70;100.00;;;;;;5006623;28;19930;-67
2024/02/04 04:32:13;;;;;;;;;;;5.70;100.00;;;;;;5006337;28;20008;-67
2024/02/04 04:34:40;;;;;;;;;;;5.70;100.00;;;;;;5005728;28;19985;-67
2024/02/04 04:37:07;;;;;;;;;;;5.70;100.00;;;;;;4988532;28;19938;-67
2024/02/04 04:39:34;;;;;;;;;;;5.60;100.00;;;;;;5005931;28;19926;-67
2024/02/04 04:42:01;;;;;;;;;;;5.60;100.00;;;;;;5004117;28;19933;-67
2024/02/04 04:44:27;;;;;;;;;;;5.70;100.00;;;;;;4989079;28;20001;-67
2024/02/04 04:46:54;;;;;;;;;;;5.70;100.00;;;;;;5006262;28;19961;-67
2024/02/04 04:49:21;;;;;;;;;;;5.70;100.00;;;;;;5006391;28;19985;-67
2024/02/04 04:51:48;;;;;;;;;;;5.70;100.00;;;;;;5005014;28;20016;-67
2024/02/04 04:54:15;;;;;;;;;;;5.70;100.00;;;;;;5006408;28;19972;-67
2024/02/04 04:56:43;;;;;;;;;;;5.70;100.00;;;;;;5005087;28;20006;-67
2024/02/04 04:59:09;;;;;;;;;;;5.70;100.00;;;;;;5006450;28;19936;-67
2024/02/04 05:01:36;;;;;;;;;;;5.60;100.00;;;;;;5005770;28;20012;-67
2024/02/04 05:04:03;;;;;;;;;;;5.70;100.00;;;;;;5005200;28;19944;-67
2024/02/04 05:06:30;;;;;;;;;;;5.70;100.00;;;;;;5005766;28;19930;-67
2024/02/04 05:08:57;;;;;;;;;;;5.60;100.00;;;;;;5005581;28;19929;-67
2024/02/04 05:11:24;;;;;;;;;;;5.60;100.00;;;;;;4988126;28;20270;-67
2024/02/04 05:13:51;;;;;;;;;;;5.60;100.00;;;;;;5005130;28;19929;-67
2024/02/04 05:16:17;;;;;;;;;;;5.70;100.00;;;;;;5005222;28;19929;-67
2024/02/04 05:18:44;;;;;;;;;;;5.60;100.00;;;;;;5003587;28;19945;-67
2024/02/04 05:21:11;;;;;;;;;;;5.60;100.00;;;;;;5006151;28;19936;-67
2024/02/04 05:23:38;;;;;;;;;;;5.60;100.00;;;;;;4986975;28;19940;-67
2024/02/04 05:26:05;;;;;;;;;;;5.70;100.00;;;;;;5020923;28;19938;-67
2024/02/04 05:28:32;;;;;;;;;;;5.70;100.00;;;;;;5004972;28;20386;-67
2024/02/04 05:31:01;;;;;;;;;;;5.80;100.00;;;;;;5005677;28;19926;-67
2024/02/04 05:33:27;;;;;;;;;;;5.80;100.00;;;;;;5005582;28;19930;-67
2024/02/04 05:35:54;;;;;;;;;;;5.80;100.00;;;;;;5018075;28;20004;-67
2024/02/04 05:38:21;;;;;;;;;;;5.80;100.00;;;;;;4985381;28;19995;-67
2024/02/04 05:40:48;;;;;;;;;;;5.90;100.00;;;;;;5005784;28;20318;-67
2024/02/04 05:43:16;;;;;;;;;;;5.80;100.00;;;;;;5019264;28;19984;-67
2024/02/04 05:45:42;;;;;;;;;;;5.90;100.00;;;;;;5014153;28;20207;-67
2024/02/04 05:48:10;;;;;;;;;;;5.90;100.00;;;;;;5005611;28;20516;-67
2024/02/04 05:50:37;;;;;;;;;;;5.90;100.00;;;;;;5005482;28;19929;-67
2024/02/04 05:53:03;;;;;;;;;;;6.00;100.00;;;;;;4988031;28;20100;-67
2024/02/04 05:55:30;;;;;;;;;;;5.90;100.00;;;;;;5011362;28;20518;-67
2024/02/04 05:57:57;;;;;;;;;;;6.00;100.00;;;;;;5011589;28;19928;-67
2024/02/04 06:00:24;;;;;;;;;;;5.90;100.00;;;;;;5014111;28;19929;-67
2024/02/04 06:02:51;;;;;;;;;;;5.90;100.00;;;;;;5008421;28;20304;-67
2024/02/04 06:05:17;;;;;;;;;;;5.90;100.00;;;;;;5007985;28;20681;-67
2024/02/04 06:07:44;;;;;;;;;;;5.90;100.00;;;;;;5016794;28;19926;-67
2024/02/04 06:10:11;;;;;;;;;;;6.00;100.00;;;;;;5010556;28;19934;-67
2024/02/04 06:12:40;;;;;;;;;;;6.00;100.00;;;;;;5009504;28;19964;-67
2024/02/04 06:15:14;;;;;;;;;;;5.90;100.00;;;;;;5015754;28;20405;-67
2024/02/04 06:17:41;;;;;;;;;;;6.00;100.00;;;;;;5017804;28;19930;-67
2024/02/04 06:20:08;;;;;;;;;;;6.00;100.00;;;;;;5008552;28;19929;-67
2024/02/04 06:22:35;;;;;;;;;;;6.00;100.00;;;;;;4991317;28;19929;-68
2024/02/04 06:25:02;;;;;;;;;;;6.00;100.00;;;;;;5008767;28;20004;-68
2024/02/04 06:27:29;;;;;;;;;;;6.00;100.00;;;;;;5014634;28;19930;-68
2024/02/04 06:29:57;;;;;;;;;;;6.00;100.00;;;;;;5016244;28;19940;-67
2024/02/04 06:32:24;;;;;;;;;;;6.00;100.00;;;;;;4990751;28;19930;-67
2024/02/04 06:34:51;;;;;;;;;;;6.00;100.00;;;;;;4991437;28;19929;-68
2024/02/04 06:37:18;;;;;;;;;;;6.00;100.00;;;;;;5008270;28;19939;-68
2024/02/04 06:39:45;;;;;;;;;;;6.00;100.00;;;;;;5008555;28;19929;-68
2024/02/04 06:42:12;;;;;;;;;;;6.00;100.00;;;;;;4989881;28;19929;-68
2024/02/04 06:44:38;;;;;;;;;;;5.90;100.00;;;;;;5007706;28;19964;-67
2024/02/04 06:47:05;;;;;;;;;;;6.00;100.00;;;;;;5012686;28;20066;-68
2024/02/04 06:49:32;;;;;;;;;;;6.00;100.00;;;;;;5011045;28;19933;-67
2024/02/04 06:51:59;;;;;;;;;;;6.00;100.00;;;;;;5007596;28;19925;-68
2024/02/04 06:54:26;;;;;;;;;;;6.00;100.00;;;;;;5007678;28;19929;-67
2024/02/04 06:56:53;;;;;;;;;;;6.00;100.00;;;;;;5006584;28;19930;-68
2024/02/04 06:59:19;;;;;;;;;;;6.00;100.00;;;;;;5016709;28;20565;-67
2024/02/04 07:01:46;;;;;;;;;;;5.90;100.00;;;;;;5015596;28;19929;-67
2024/02/04 07:04:13;;;;;;;;;;;5.90;100.00;;;;;;5008190;28;19935;-67
2024/02/04 07:06:40;;;;;;;;;;;5.90;100.00;;;;;;5005520;28;19925;-68
2024/02/04 07:09:07;;;;;;;;;;;5.90;100.00;;;;;;4988652;28;20283;-67
2024/02/04 07:11:34;;;;;;;;;;;5.90;100.00;;;;;;5006875;28;19937;-68
2024/02/04 07:14:01;;;;;;;;;;;5.90;100.00;;;;;;5007760;28;19937;-67
2024/02/04 07:16:27;;;;;;;;;;;5.90;100.00;;;;;;5007427;28;20337;-67
2024/02/04 07:18:55;;;;;;;;;;;5.90;100.00;;;;;;5010729;28;20504;-67
2024/02/04 07:21:22;;;;;;;;;;;5.90;100.00;;;;;;5013553;28;19951;-68
2024/02/04 07:23:49;;;;;;;;;;;6.00;100.00;;;;;;5008387;28;19976;-68
2024/02/04 07:26:16;;;;;;;;;;;6.00;100.00;;;;;;4989261;28;19929;-68
2024/02/04 07:28:42;;;;;;;;;;;6.00;100.00;;;;;;5007382;28;20736;-68
2024/02/04 07:31:10;;;;;;;;;;;6.00;100.00;;;;;;5006592;28;20429;-68
2024/02/04 07:33:37;;;;;;;;;;;6.00;100.00;;;;;;5015822;28;20331;-68
2024/02/04 07:36:04;;;;;;;;;;;6.00;100.00;;;;;;5011425;28;20555;-67
2024/02/04 07:38:31;;;;;;;;;;;6.00;100.00;;;;;;4990921;28;20464;-67
2024/02/04 07:40:59;;;;;;;;;;;6.00;100.00;;;;;;5011231;28;19929;-67
2024/02/04 07:43:26;;;;;;;;;;;6.00;100.00;;;;;;5006240;28;19929;-67
2024/02/04 07:45:52;;;;;;;;;;;6.10;100.00;;;;;;5007245;28;19961;-67
2024/02/04 07:48:19;;;;;;;;;;;6.10;100.00;;;;;;5006824;28;20296;-67
2024/02/04 07:50:46;;;;;;;;;;;6.10;100.00;;;;;;5005928;28;20020;-68
2024/02/04 07:53:13;;;;;;;;;;;6.10;100.00;;;;;;5000007;28;20439;-68
2024/02/04 07:55:40;;;;;;;;;;;6.10;100.00;;;;;;5011678;28;19937;-68
2024/02/04 07:58:06;;;;;;;;;;;6.10;100.00;;;;;;5006157;28;19933;-67
2024/02/04 08:00:33;;;;;;;;;;;6.10;100.00;;;;;;5005631;28;20367;-68
2024/02/04 08:03:00;;;;;;;;;;;6.20;100.00;;;;;;5012507;28;19929;-68
2024/02/04 08:05:27;;;;;;;;;;;6.20;100.00;;;;;;5014403;28;20016;-67
2024/02/04 08:07:54;;;;;;;;;;;6.20;100.00;;;;;;5015745;28;19929;-68
2024/02/04 08:10:21;;;;;;;;;;;6.20;100.00;;;;;;5014774;28;20363;-67
2024/02/04 08:12:50;;;;;;;;;;;6.20;100.00;;;;;;4989003;28;19933;-68
2024/02/04 08:15:18;;;;;;;;;;;6.30;100.00;;;;;;5006315;28;19930;-68
2024/02/04 08:17:44;;;;;;;;;;;6.30;100.00;;;;;;5004777;28;19929;-68
2024/02/04 08:20:11;;;;;;;;;;;6.30;100.00;;;;;;4996982;28;19930;-68
2024/02/04 08:22:38;;;;;;;;;;;6.30;100.00;;;;;;4995679;28;20400;-67
2024/02/04 08:25:05;;;;;;;;;;;6.40;100.00;;;;;;5015487;28;19933;-68
2024/02/04 08:27:32;;;;;;;;;;;6.40;100.00;;;;;;5006244;28;19937;-68
2024/02/04 08:29:59;;;;;;;;;;;6.40;100.00;;;;;;5006572;28;20350;-68
2024/02/04 08:32:26;;;;;;;;;;;6.40;100.00;;;;;;5006154;28;20549;-67
2024/02/04 08:34:53;;;;;;;;;;;6.40;100.00;;;;;;5005720;28;19925;-68
2024/02/04 08:37:20;;;;;;;;;;;6.50;100.00;;;;;;4987435;28;19925;-68
2024/02/04 08:39:46;;;;;;;;;;;6.50;100.00;;;;;;4989409;28;19960;-68
2024/02/04 08:42:16;;;;;;;;;;;6.50;100.00;;;;;;5005790;28;19960;-68
2024/02/04 08:44:42;;;;;;;;;;;6.50;100.00;;;;;;5006336;28;19929;-68
2024/02/04 08:47:11;;;;;;;;;;;6.50;100.00;;;;;;5005980;28;19930;-68
2024/02/04 08:49:37;;;;;;;;;;;6.50;100.00;;;;;;5007462;28;19961;-68
2024/02/04 08:52:05;;;;;;;;;;;6.50;100.00;;;;;;5004795;28;19929;-68
2024/02/04 08:54:32;;;;;;;;;;;6.60;100.00;;;;;;5013761;28;19997;-68
2024/02/04 08:56:59;;;;;;;;;;;6.60;100.00;;;;;;5005491;28;19948;-68
2024/02/04 08:59:25;;;;;;;;;;;6.60;100.00;;;;;;4987715;28;19941;-68
2024/02/04 09:01:52;;;;;;;;;;;6.70;100.00;;;;;;5005958;28;19929;-68
2024/02/04 09:04:19;;;;;;;;;;;6.70;100.00;;;;;;5004355;28;20633;-68
2024/02/04 09:06:46;;;;;;;;;;;6.70;100.00;;;;;;5006257;28;19936;-67
2024/02/04 09:09:13;;;;;;;;;;;6.80;100.00;;;;;;5006466;28;20024;-67
2024/02/04 09:11:40;;;;;;;;;;;6.80;100.00;;;;;;5006124;28;19996;-67
2024/02/04 09:14:07;;;;;;;;;;;6.70;100.00;;;;;;5005694;28;19936;-68
2024/02/04 09:16:37;;;;;;;;;;;6.80;100.00;;;;;;5005133;28;19954;-67
2024/02/04 09:19:04;;;;;;;;;;;6.80;100.00;;;;;;5003433;28;19929;-67
2024/02/04 09:21:31;;;;;;;;;;;6.70;100.00;;;;;;5015825;28;19929;-68
2024/02/04 09:23:58;;;;;;;;;;;6.70;100.00;;;;;;5019929;28;20012;-67
2024/02/04 09:26:25;;;;;;;;;;;6.80;100.00;;;;;;5005075;28;19935;-68
2024/02/04 09:28:51;;;;;;;;;;;6.80;100.00;;;;;;5006755;28;20555;-68
2024/02/04 09:31:18;;;;;;;;;;;6.90;100.00;;;;;;5008966;28;19936;-68
2024/02/04 09:33:45;;;;;;;;;;;6.90;100.00;;;;;;5008802;28;19933;-68
2024/02/04 09:36:12;;;;;;;;;;;6.80;100.00;;;;;;5011859;28;19992;-68
2024/02/04 09:38:39;;;;;;;;;;;6.80;100.00;;;;;;5018504;28;19987;-68
2024/02/04 09:41:06;;;;;;;;;;;6.80;100.00;;;;;;5009178;28;19929;-67
2024/02/04 09:43:35;;;;;;;;;;;6.80;100.00;;;;;;5008501;28;20594;-67
2024/02/04 09:46:04;;;;;;;;;;;6.80;100.00;;;;;;5009422;28;20019;-67
2024/02/04 09:48:31;;;;;;;;;;;6.80;100.00;;;;;;4991674;28;20322;-68
2024/02/04 09:50:59;;;;;;;;;;;6.80;100.00;;;;;;5008333;28;19929;-68
2024/02/04 09:53:31;;;;;;;;;;;6.90;100.00;;;;;;5010276;28;19933;-68
2024/02/04 09:55:59;;;;;;;;;;;6.80;100.00;;;;;;5008813;28;19938;-68
2024/02/04 09:58:26;;;;;;;;;;;6.90;100.00;;;;;;5009017;28;20454;-68
2024/02/04 10:00:53;;;;;;;;;;;6.90;100.00;;;;;;5007872;28;20526;-68
2024/02/04 10:03:21;;;;;;;;;;;6.90;100.00;;;;;;5011983;28;20268;-68
2024/02/04 10:05:47;;;;;;;;;;;6.90;100.00;;;;;;5009229;28;19933;-68
2024/02/04 10:08:14;;;;;;;;;;;7.00;100.00;;;;;;4991607;28;19939;-67
2024/02/04 10:10:47;;;;;;;;;;;7.00;100.00;;;;;;5009274;28;19997;-67
2024/02/04 10:13:14;;;;;;;;;;;6.90;100.00;;;;;;5009203;28;20333;-67
2024/02/04 10:15:41;;;;;;;;;;;6.90;100.00;;;;;;5007712;28;19929;-67
2024/02/04 10:18:08;;;;;;;;;;;6.90;100.00;;;;;;5026991;28;20384;-67
2024/02/04 10:20:35;;;;;;;;;;;7.00;100.00;;;;;;5008715;28;19929;-67
2024/02/04 10:23:02;;;;;;;;;;;7.00;100.00;;;;;;5006967;28;19926;-67
2024/02/04 10:25:29;;;;;;;;;;;6.90;100.00;;;;;;5008617;28;19941;-69
2024/02/04 10:27:55;;;;;;;;;;;6.90;100.00;;;;;;5007630;28;20007;-67
2024/02/04 10:30:22;;;;;;;;;;;7.00;100.00;;;;;;5003297;28;19988;-67
2024/02/04 10:32:52;;;;;;;;;;;6.90;100.00;;;;;;5008312;28;19926;-67
2024/02/04 10:35:23;;;;;;;;;;;6.90;100.00;;;;;;5009572;28;20367;-67
2024/02/04 10:37:51;;;;;;;;;;;6.90;100.00;;;;;;5008079;28;20529;-67
2024/02/04 10:40:19;;;;;;;;;;;6.90;100.00;;;;;;5007193;28;19936;-68
2024/02/04 10:42:46;;;;;;;;;;;7.00;100.00;;;;;;5008344;28;20398;-68
2024/02/04 10:45:15;;;;;;;;;;;7.00;100.00;;;;;;5007854;28;19952;-67
2024/02/04 10:47:42;;;;;;;;;;;7.00;100.00;;;;;;5007408;28;20016;-67
2024/02/04 10:50:11;;;;;;;;;;;7.00;100.00;;;;;;5015482;28;19936;-67
2024/02/04 10:52:42;;;;;;;;;;;6.90;100.00;;;;;;5014475;28;19955;-67
2024/02/04 10:55:10;;;;;;;;;;;6.90;100.00;;;;;;5018709;28;20035;-67
2024/02/04 10:57:38;;;;;;;;;;;6.90;100.00;;;;;;5007817;28;20665;-67
2024/02/04 11:00:08;;;;;;;;;;;6.90;100.00;;;;;;5007457;28;19930;-67
2024/02/04 11:02:36;;;;;;;;;;;6.90;100.00;;;;;;5007890;28;19933;-67
2024/02/04 11:05:04;;;;;;;;;;;6.90;100.00;;;;;;5006486;28;19977;-67
2024/02/04 11:07:34;;;;;;;;;;;6.90;100.00;;;;;;5028581;28;19933;-67
2024/02/04 11:10:01;;;;;;;;;;;6.90;100.00;;;;;;5018624;28;20044;-67
2024/02/04 11:12:29;;;;;;;;;;;6.90;100.00;;;;;;5000338;28;19944;-67
2024/02/04 11:14:59;;;;;;;;;;;6.90;100.00;;;;;;5011293;28;20052;-67
2024/02/04 11:17:45;;;;;;;;;;;6.90;100.00;;;;;;5007516;28;19984;-67
2024/02/04 11:20:30;;;;;;;;;;;7.00;100.00;;;;;;5007866;28;20003;-67
2024/02/04 11:23:09;;;;;;;;;;;7.00;100.00;;;;;;5007390;28;20023;-67
2024/02/04 11:25:52;;;;;;;;;;;6.90;100.00;;;;;;5007025;28;19940;-68
2024/02/04 11:28:25;;;;;;;;;;;6.90;100.00;;;;;;5011005;28;19956;-68
2024/02/04 11:30:52;;;;;;;;;;;7.00;100.00;;;;;;5017173;28;20032;-67
2024/02/04 11:33:20;;;;;;;;;;;7.00;100.00;;;;;;5011638;28;20061;-67
2024/02/04 11:36:08;;;;;;;;;;;6.90;100.00;;;;;;4989309;28;19933;-67
2024/02/04 11:38:36;;;;;;;;;;;7.00;100.00;;;;;;5005780;28;19929;-67
2024/02/04 11:41:03;;;;;;;;;;;7.00;100.00;;;;;;5007265;28;19937;-67
2024/02/04 11:43:32;;;;;;;;;;;7.00;100.00;;;;;;4995891;28;19979;-67
2024/02/04 11:46:00;;;;;;;;;;;7.10;100.00;;;;;;4993831;28;20373;-68
2024/02/04 11:48:33;;;;;;;;;;;7.00;100.00;;;;;;5005982;28;19930;-68
2024/02/04 11:51:00;;;;;;;;;;;7.00;100.00;;;;;;5014322;28;19940;-67
2024/02/04 11:53:31;;;;;;;;;;;7.10;100.00;;;;;;5017362;28;19934;-67
2024/02/04 11:56:00;;;;;;;;;;;7.10;100.00;;;;;;4991555;28;20388;-67
2024/02/04 11:58:27;;;;;;;;;;;7.10;100.00;;;;;;5006562;28;20562;-67
2024/02/04 12:00:57;;;;;;;;;;;7.10;100.00;;;;;;5007304;28;20354;-67
2024/02/04 12:03:28;;;;;;;;;;;7.10;100.00;;;;;;5005151;28;20040;-67
2024/02/04 12:05:55;;;;;;;;;;;7.10;100.00;;;;;;5006436;28;20680;-67
2024/02/04 12:08:23;;;;;;;;;;;7.10;100.00;;;;;;5006253;28;19973;-67
2024/02/04 12:10:50;;;;;;;;;;;7.10;100.00;;;;;;5005800;28;19925;-68
2024/02/04 12:13:18;;;;;;;;;;;7.00;100.00;;;;;;4989477;28;19933;-67
2024/02/04 12:15:46;;;;;;;;;;;7.00;100.00;;;;;;5006169;28;19930;-67
2024/02/04 12:18:14;;;;;;;;;;;7.00;100.00;;;;;;5005167;28;19975;-68
2024/02/04 12:20:41;;;;;;;;;;;7.00;100.00;;;;;;5014719;28;19930;-67
2024/02/04 12:23:08;;;;;;;;;;;7.00;100.00;;;;;;5013212;28;20576;-68
2024/02/04 12:25:35;;;;;;;;;;;7.00;100.00;;;;;;5006410;28;20739;-68
2024/02/04 12:28:04;;;;;;;;;;;7.00;100.00;;;;;;5007100;28;20283;-67
2024/02/04 12:30:32;;;;;;;;;;;7.00;100.00;;;;;;4993266;28;19935;-68
2024/02/04 12:33:01;;;;;;;;;;;7.00;100.00;;;;;;5005826;28;19929;-68
2024/02/04 12:35:28;;;;;;;;;;;6.90;100.00;;;;;;5005688;28;19934;-67
2024/02/04 12:37:56;;;;;;;;;;;6.90;100.00;;;;;;5010152;28;19929;-67
2024/02/04 12:40:32;;;;;;;;;;;6.90;100.00;;;;;;5005860;28;19929;-68
2024/02/04 12:43:01;;;;;;;;;;;6.90;100.00;;;;;;5006493;28;19933;-68
2024/02/04 12:45:32;;;;;;;;;;;6.90;100.00;;;;;;4988466;28;20374;-68
2024/02/04 12:47:59;;;;;;;;;;;6.90;100.00;;;;;;5006487;28;19925;-67
2024/02/04 12:50:26;;;;;;;;;;;6.90;100.00;;;;;;4988409;28;19930;-67
2024/02/04 12:53:06;;;;;;;;;;;6.80;100.00;;;;;;5009937;28;20530;-67
2024/02/04 12:55:36;;;;;;;;;;;6.80;100.00;;;;;;5016826;28;19933;-67
2024/02/04 12:58:04;;;;;;;;;;;6.90;100.00;;;;;;5005782;28;19937;-67
2024/02/04 13:00:34;;;;;;;;;;;6.90;100.00;;;;;;5008015;28;19930;-67
2024/02/04 13:03:02;;;;;;;;;;;6.90;100.00;;;;;;4999174;28;19936;-67
2024/02/04 13:05:31;;;;;;;;;;;7.00;100.00;;;;;;5003649;28;19973;-68
2024/02/04 13:08:00;;;;;;;;;;;7.00;100.00;;;;;;5011838;28;19984;-68
2024/02/04 13:10:27;;;;;;;;;;;7.10;100.00;;;;;;5011038;28;20326;-68
2024/02/04 13:12:57;;;;;;;;;;;7.20;100.00;;;;;;5012589;28;19969;-67
2024/02/04 13:15:24;;;;;;;;;;;7.20;100.00;;;;;;5001469;28;19926;-67
2024/02/04 13:17:51;;;;;;;;;;;7.20;100.00;;;;;;5012601;28;19930;-67
2024/02/04 13:20:18;;;;;;;;;;;7.20;100.00;;;;;;4987312;28;19929;-68
2024/02/04 13:22:45;;;;;;;;;;;7.20;100.00;;;;;;5014302;28;19925;-68
2024/02/04 13:25:12;;;;;;;;;;;7.20;100.00;;;;;;5009440;28;19933;-67
2024/02/04 13:27:39;;;;;;;;;;;7.20;100.00;;;;;;5005722;28;19929;-67
2024/02/04 13:30:11;;;;;;;;;;;7.20;100.00;;;;;;5005980;28;19929;-67
2024/02/04 13:32:40;;;;;;;;;;;7.30;100.00;;;;;;4987954;28;20469;-68
2024/02/04 13:35:08;;;;;;;;;;;7.30;100.00;;;;;;5004814;28;19976;-68
2024/02/04 13:37:50;;;;;;;;;;;7.30;100.00;;;;;;5021024;28;19929;-68
2024/02/04 13:40:19;;;;;;;;;;;7.30;100.00;;;;;;4987821;28;19929;-67
2024/02/04 13:42:46;;;;;;;;;;;7.30;100.00;;;;;;5014144;28;19929;-68
2024/02/04 13:45:14;;;;;;;;;;;7.30;100.00;;;;;;4999574;28;19937;-68
2024/02/04 13:47:41;;;;;;;;;;;7.30;100.00;;;;;;5004500;28;19940;-68
2024/02/04 13:50:09;;;;;;;;;;;7.30;100.00;;;;;;5012676;28;19984;-67
2024/02/04 13:52:36;;;;;;;;;;;7.30;100.00;;;;;;5008914;28;19936;-67
2024/02/04 13:55:05;;;;;;;;;;;7.30;100.00;;;;;;5005179;28;20382;-67
2024/02/04 13:57:32;;;;;;;;;;;7.30;100.00;;;;;;4987348;28;19933;-68
2024/02/04 13:59:59;;;;;;;;;;;7.40;100.00;;;;;;5005311;28;20276;-68
2024/02/04 14:02:29;;;;;;;;;;;7.40;100.00;;;;;;5004781;28;19929;-67
2024/02/04 14:04:56;;;;;;;;;;;7.40;100.00;;;;;;5015687;28;20023;-67
2024/02/04 14:07:25;;;;;;;;;;;7.50;100.00;;;;;;5007815;28;20508;-68
2024/02/04 14:09:51;;;;;;;;;;;7.50;100.00;;;;;;5005410;28;19945;-67
2024/02/04 14:12:18;;;;;;;;;;;7.60;100.00;;;;;;5005066;28;19992;-68
2024/02/04 14:14:45;;;;;;;;;;;7.60;100.00;;;;;;5004928;28;20515;-67
2024/02/04 14:17:12;;;;;;;;;;;7.60;100.00;;;;;;5007440;28;20699;-67
2024/02/04 14:19:38;;;;;;;;;;;7.60;100.00;;;;;;5021870;28;19968;-67